sensor_id;sensor_type;location;lat;lon;timestamp;P1;durP1;ratioP1;P2;durP2;ratioP2
47009;SDS011;59230;54.164;-3.124;2023-02-15T00:01:47;45.67;;;28.35;;
47009;SDS011;59230;54.164;-3.124;2023-02-15T00:04:14;52.75;;;30.55;;
47009;SDS011;59230;54.164;-3.124;2023-02-15T00:06:42;50.78;;;30.10;;
47009;SDS011;59230;54.164;-3.124;2023-02-15T00:09:08;52.78;;;30.58;;
47009;SDS011;59230;54.164;-3.124;2023-02-15T00:11:35;55.00;;;30.00;;
47009;SDS011;59230;54.164;-3.124;2023-02-15T00:14:20;52.92;;;30.58;;
47009;SDS011;59230;54.164;-3.124;2023-02-15T00:16:49;57.17;;;31.10;;
47009;SDS011;59230;54.164;-3.124;2023-02-15T00:19:16;51.58;;;29.98;;
47009;SDS011;59230;54.164;-3.124;2023-02-15T00:21:47;55.05;;;31.08;;
47009;SDS011;59230;54.164;-3.124;2023-02-15T00:24:15;55.05;;;32.08;;
47009;SDS011;59230;54.164;-3.124;2023-02-15T00:26:45;60.92;;;31.42;;
47009;SDS011;59230;54.164;-3.124;2023-02-15T00:29:12;56.00;;;31.33;;
47009;SDS011;59230;54.164;-3.124;2023-02-15T00:31:39;51.65;;;31.17;;
47009;SDS011;59230;54.164;-3.124;2023-02-15T00:34:07;56.97;;;30.52;;
47009;SDS011;59230;54.164;-3.124;2023-02-15T00:36:39;60.03;;;31.35;;
47009;SDS011;59230;54.164;-3.124;2023-02-15T00:39:07;52.20;;;30.25;;
47009;SDS011;59230;54.164;-3.124;2023-02-15T00:41:34;53.75;;;31.38;;
47009;SDS011;59230;54.164;-3.124;2023-02-15T00:44:02;58.33;;;31.35;;
47009;SDS011;59230;54.164;-3.124;2023-02-15T00:46:29;53.85;;;30.48;;
47009;SDS011;59230;54.164;-3.124;2023-02-15T00:48:56;57.97;;;33.28;;
47009;SDS011;59230;54.164;-3.124;2023-02-15T00:51:21;55.20;;;33.20;;
47009;SDS011;59230;54.164;-3.124;2023-02-15T00:53:47;62.25;;;34.03;;
47009;SDS011;59230;54.164;-3.124;2023-02-15T00:56:14;62.15;;;34.88;;
47009;SDS011;59230;54.164;-3.124;2023-02-15T00:58:41;63.50;;;33.70;;
47009;SDS011;59230;54.164;-3.124;2023-02-15T01:01:09;61.08;;;34.10;;
47009;SDS011;59230;54.164;-3.124;2023-02-15T01:03:38;64.35;;;34.90;;
47009;SDS011;59230;54.164;-3.124;2023-02-15T01:06:05;69.13;;;36.53;;
47009;SDS011;59230;54.164;-3.124;2023-02-15T01:08:31;68.00;;;36.97;;
47009;SDS011;59230;54.164;-3.124;2023-02-15T01:11:04;62.97;;;35.92;;
47009;SDS011;59230;54.164;-3.124;2023-02-15T01:13:32;67.47;;;36.65;;
47009;SDS011;59230;54.164;-3.124;2023-02-15T01:16:00;73.40;;;39.30;;
47009;SDS011;59230;54.164;-3.124;2023-02-15T01:18:26;67.15;;;36.92;;
47009;SDS011;59230;54.164;-3.124;2023-02-15T01:20:52;70.93;;;39.40;;
47009;SDS011;59230;54.164;-3.124;2023-02-15T01:23:19;75.20;;;39.28;;
47009;SDS011;59230;54.164;-3.124;2023-02-15T01:25:46;72.82;;;40.13;;
47009;SDS011;59230;54.164;-3.124;2023-02-15T01:28:11;79.45;;;39.65;;
47009;SDS011;59230;54.164;-3.124;2023-02-15T01:30:38;78.68;;;39.90;;
47009;SDS011;59230;54.164;-3.124;2023-02-15T01:33:05;84.57;;;43.70;;
47009;SDS011;59230;54.164;-3.124;2023-02-15T01:35:31;79.85;;;43.17;;
47009;SDS011;59230;54.164;-3.124;2023-02-15T01:37:56;82.10;;;42.22;;
47009;SDS011;59230;54.164;-3.124;2023-02-15T01:40:23;82.05;;;43.17;;
47009;SDS011;59230;54.164;-3.124;2023-02-15T01:42:51;79.57;;;43.90;;
47009;SDS011;59230;54.164;-3.124;2023-02-15T01:45:26;78.93;;;41.80;;
47009;SDS011;59230;54.164;-3.124;2023-02-15T01:48:02;82.18;;;42.55;;
47009;SDS011;59230;54.164;-3.124;2023-02-15T01:50:47;85.95;;;43.65;;
47009;SDS011;59230;54.164;-3.124;2023-02-15T01:53:26;90.28;;;45.60;;
47009;SDS011;59230;54.164;-3.124;2023-02-15T01:58:29;88.20;;;44.70;;
47009;SDS011;59230;54.164;-3.124;2023-02-15T02:00:55;87.05;;;46.15;;
47009;SDS011;59230;54.164;-3.124;2023-02-15T02:03:50;91.05;;;45.75;;
47009;SDS011;59230;54.164;-3.124;2023-02-15T02:06:17;90.05;;;44.33;;
47009;SDS011;59230;54.164;-3.124;2023-02-15T02:08:45;90.43;;;46.38;;
47009;SDS011;59230;54.164;-3.124;2023-02-15T02:11:13;96.80;;;46.95;;
47009;SDS011;59230;54.164;-3.124;2023-02-15T02:13:40;96.05;;;47.90;;
47009;SDS011;59230;54.164;-3.124;2023-02-15T02:28:04;101.85;;;49.35;;
47009;SDS011;59230;54.164;-3.124;2023-02-15T02:36:58;100.65;;;49.67;;
47009;SDS011;59230;54.164;-3.124;2023-02-15T02:39:37;95.88;;;49.65;;
47009;SDS011;59230;54.164;-3.124;2023-02-15T02:42:31;104.38;;;49.35;;
47009;SDS011;59230;54.164;-3.124;2023-02-15T02:45:09;100.05;;;49.17;;
47009;SDS011;59230;54.164;-3.124;2023-02-15T02:47:45;96.93;;;49.38;;
47009;SDS011;59230;54.164;-3.124;2023-02-15T02:50:17;101.43;;;49.80;;
47009;SDS011;59230;54.164;-3.124;2023-02-15T02:52:50;91.93;;;48.60;;
47009;SDS011;59230;54.164;-3.124;2023-02-15T02:58:28;99.38;;;49.83;;
47009;SDS011;59230;54.164;-3.124;2023-02-15T03:00:56;103.40;;;49.78;;
47009;SDS011;59230;54.164;-3.124;2023-02-15T03:06:24;103.40;;;49.42;;
47009;SDS011;59230;54.164;-3.124;2023-02-15T03:09:15;103.88;;;48.55;;
47009;SDS011;59230;54.164;-3.124;2023-02-15T03:12:10;102.70;;;48.55;;
47009;SDS011;59230;54.164;-3.124;2023-02-15T03:14:41;97.03;;;49.28;;
47009;SDS011;59230;54.164;-3.124;2023-02-15T03:17:08;98.15;;;46.38;;
47009;SDS011;59230;54.164;-3.124;2023-02-15T03:19:36;94.85;;;46.30;;
47009;SDS011;59230;54.164;-3.124;2023-02-15T03:23:04;93.13;;;47.95;;
47009;SDS011;59230;54.164;-3.124;2023-02-15T03:25:12;90.65;;;46.45;;
47009;SDS011;59230;54.164;-3.124;2023-02-15T03:27:54;86.35;;;44.67;;
47009;SDS011;59230;54.164;-3.124;2023-02-15T03:30:30;90.05;;;46.42;;
47009;SDS011;59230;54.164;-3.124;2023-02-15T03:32:58;91.10;;;45.35;;
47009;SDS011;59230;54.164;-3.124;2023-02-15T03:35:33;89.43;;;45.88;;
47009;SDS011;59230;54.164;-3.124;2023-02-15T03:38:19;95.72;;;46.38;;
47009;SDS011;59230;54.164;-3.124;2023-02-15T03:40:50;108.15;;;46.25;;
47009;SDS011;59230;54.164;-3.124;2023-02-15T03:43:39;85.00;;;43.80;;
47009;SDS011;59230;54.164;-3.124;2023-02-15T03:48:43;91.22;;;44.47;;
47009;SDS011;59230;54.164;-3.124;2023-02-15T03:51:17;91.82;;;45.58;;
47009;SDS011;59230;54.164;-3.124;2023-02-15T03:57:01;87.45;;;43.88;;
47009;SDS011;59230;54.164;-3.124;2023-02-15T03:59:46;82.32;;;42.58;;
47009;SDS011;59230;54.164;-3.124;2023-02-15T04:05:21;86.45;;;43.10;;
47009;SDS011;59230;54.164;-3.124;2023-02-15T04:07:46;89.32;;;43.65;;
47009;SDS011;59230;54.164;-3.124;2023-02-15T04:10:13;90.28;;;43.50;;
47009;SDS011;59230;54.164;-3.124;2023-02-15T04:12:58;95.75;;;45.13;;
47009;SDS011;59230;54.164;-3.124;2023-02-15T04:15:25;87.80;;;42.75;;
47009;SDS011;59230;54.164;-3.124;2023-02-15T04:18:09;92.82;;;46.55;;
47009;SDS011;59230;54.164;-3.124;2023-02-15T04:20:35;95.15;;;42.63;;
47009;SDS011;59230;54.164;-3.124;2023-02-15T04:23:20;92.63;;;43.05;;
47009;SDS011;59230;54.164;-3.124;2023-02-15T04:26:04;94.55;;;44.60;;
47009;SDS011;59230;54.164;-3.124;2023-02-15T04:28:30;94.22;;;45.55;;
47009;SDS011;59230;54.164;-3.124;2023-02-15T04:30:57;97.07;;;45.72;;
47009;SDS011;59230;54.164;-3.124;2023-02-15T04:33:27;100.93;;;46.53;;
47009;SDS011;59230;54.164;-3.124;2023-02-15T04:35:54;96.22;;;43.97;;
47009;SDS011;59230;54.164;-3.124;2023-02-15T04:38:23;94.57;;;43.78;;
47009;SDS011;59230;54.164;-3.124;2023-02-15T04:40:50;96.10;;;44.72;;
47009;SDS011;59230;54.164;-3.124;2023-02-15T04:43:17;98.07;;;44.70;;
47009;SDS011;59230;54.164;-3.124;2023-02-15T04:45:49;95.18;;;44.65;;
47009;SDS011;59230;54.164;-3.124;2023-02-15T04:48:17;101.97;;;44.90;;
47009;SDS011;59230;54.164;-3.124;2023-02-15T04:50:45;96.05;;;42.95;;
47009;SDS011;59230;54.164;-3.124;2023-02-15T04:53:11;89.47;;;45.92;;
47009;SDS011;59230;54.164;-3.124;2023-02-15T04:55:39;91.20;;;44.53;;
47009;SDS011;59230;54.164;-3.124;2023-02-15T04:58:07;98.65;;;43.38;;
47009;SDS011;59230;54.164;-3.124;2023-02-15T05:00:34;94.32;;;43.38;;
47009;SDS011;59230;54.164;-3.124;2023-02-15T05:03:00;89.38;;;43.03;;
47009;SDS011;59230;54.164;-3.124;2023-02-15T05:05:27;101.55;;;44.90;;
47009;SDS011;59230;54.164;-3.124;2023-02-15T05:07:54;84.63;;;41.65;;
47009;SDS011;59230;54.164;-3.124;2023-02-15T05:10:20;89.90;;;42.92;;
47009;SDS011;59230;54.164;-3.124;2023-02-15T05:12:47;92.57;;;43.13;;
47009;SDS011;59230;54.164;-3.124;2023-02-15T05:15:14;81.72;;;41.15;;
47009;SDS011;59230;54.164;-3.124;2023-02-15T05:17:40;85.68;;;40.95;;
47009;SDS011;59230;54.164;-3.124;2023-02-15T05:20:06;86.05;;;42.53;;
47009;SDS011;59230;54.164;-3.124;2023-02-15T05:22:34;90.95;;;42.55;;
47009;SDS011;59230;54.164;-3.124;2023-02-15T05:25:01;86.85;;;41.88;;
47009;SDS011;59230;54.164;-3.124;2023-02-15T05:27:46;96.15;;;40.83;;
47009;SDS011;59230;54.164;-3.124;2023-02-15T05:30:34;82.80;;;41.38;;
47009;SDS011;59230;54.164;-3.124;2023-02-15T05:33:02;91.78;;;43.00;;
47009;SDS011;59230;54.164;-3.124;2023-02-15T05:35:28;85.88;;;42.30;;
47009;SDS011;59230;54.164;-3.124;2023-02-15T05:37:54;78.63;;;40.33;;
47009;SDS011;59230;54.164;-3.124;2023-02-15T05:40:20;88.43;;;39.33;;
47009;SDS011;59230;54.164;-3.124;2023-02-15T05:42:47;79.25;;;40.72;;
47009;SDS011;59230;54.164;-3.124;2023-02-15T05:45:14;85.18;;;40.35;;
47009;SDS011;59230;54.164;-3.124;2023-02-15T05:47:40;84.55;;;41.40;;
47009;SDS011;59230;54.164;-3.124;2023-02-15T05:50:08;79.30;;;40.03;;
47009;SDS011;59230;54.164;-3.124;2023-02-15T05:52:34;86.63;;;41.63;;
47009;SDS011;59230;54.164;-3.124;2023-02-15T05:55:03;69.95;;;38.15;;
47009;SDS011;59230;54.164;-3.124;2023-02-15T05:57:32;77.25;;;40.97;;
47009;SDS011;59230;54.164;-3.124;2023-02-15T05:59:58;86.80;;;40.67;;
47009;SDS011;59230;54.164;-3.124;2023-02-15T06:02:25;81.20;;;40.33;;
47009;SDS011;59230;54.164;-3.124;2023-02-15T06:04:51;76.07;;;40.05;;
47009;SDS011;59230;54.164;-3.124;2023-02-15T06:07:17;81.30;;;41.55;;
47009;SDS011;59230;54.164;-3.124;2023-02-15T06:09:42;79.85;;;39.65;;
47009;SDS011;59230;54.164;-3.124;2023-02-15T06:12:08;85.70;;;39.92;;
47009;SDS011;59230;54.164;-3.124;2023-02-15T06:14:34;86.47;;;41.80;;
47009;SDS011;59230;54.164;-3.124;2023-02-15T06:17:01;87.30;;;41.58;;
47009;SDS011;59230;54.164;-3.124;2023-02-15T06:19:28;88.68;;;41.83;;
47009;SDS011;59230;54.164;-3.124;2023-02-15T06:21:54;85.38;;;42.17;;
47009;SDS011;59230;54.164;-3.124;2023-02-15T06:24:21;84.55;;;41.22;;
47009;SDS011;59230;54.164;-3.124;2023-02-15T06:26:50;80.28;;;40.03;;
47009;SDS011;59230;54.164;-3.124;2023-02-15T06:29:16;77.45;;;39.58;;
47009;SDS011;59230;54.164;-3.124;2023-02-15T06:31:45;89.80;;;42.40;;
47009;SDS011;59230;54.164;-3.124;2023-02-15T06:34:13;76.20;;;39.83;;
47009;SDS011;59230;54.164;-3.124;2023-02-15T06:36:39;87.43;;;40.63;;
47009;SDS011;59230;54.164;-3.124;2023-02-15T06:39:04;75.60;;;39.58;;
47009;SDS011;59230;54.164;-3.124;2023-02-15T06:41:30;76.97;;;39.47;;
47009;SDS011;59230;54.164;-3.124;2023-02-15T06:43:58;84.57;;;39.45;;
47009;SDS011;59230;54.164;-3.124;2023-02-15T06:46:25;79.22;;;38.15;;
47009;SDS011;59230;54.164;-3.124;2023-02-15T06:48:51;75.22;;;38.45;;
47009;SDS011;59230;54.164;-3.124;2023-02-15T06:51:18;78.63;;;36.70;;
47009;SDS011;59230;54.164;-3.124;2023-02-15T06:53:44;76.53;;;37.33;;
47009;SDS011;59230;54.164;-3.124;2023-02-15T06:56:11;69.82;;;36.55;;
47009;SDS011;59230;54.164;-3.124;2023-02-15T06:58:39;84.35;;;37.05;;
47009;SDS011;59230;54.164;-3.124;2023-02-15T07:01:06;76.50;;;38.30;;
47009;SDS011;59230;54.164;-3.124;2023-02-15T07:03:33;83.20;;;38.72;;
47009;SDS011;59230;54.164;-3.124;2023-02-15T07:06:01;81.63;;;39.28;;
47009;SDS011;59230;54.164;-3.124;2023-02-15T07:08:28;80.72;;;39.90;;
47009;SDS011;59230;54.164;-3.124;2023-02-15T07:10:54;77.05;;;37.70;;
47009;SDS011;59230;54.164;-3.124;2023-02-15T07:13:40;91.10;;;43.60;;
47009;SDS011;59230;54.164;-3.124;2023-02-15T07:16:07;89.40;;;40.60;;
47009;SDS011;59230;54.164;-3.124;2023-02-15T07:18:33;80.22;;;39.63;;
47009;SDS011;59230;54.164;-3.124;2023-02-15T07:20:59;81.18;;;40.20;;
47009;SDS011;59230;54.164;-3.124;2023-02-15T07:23:25;81.40;;;39.60;;
47009;SDS011;59230;54.164;-3.124;2023-02-15T07:26:00;76.25;;;39.15;;
47009;SDS011;59230;54.164;-3.124;2023-02-15T07:28:27;75.85;;;39.15;;
47009;SDS011;59230;54.164;-3.124;2023-02-15T07:30:53;76.80;;;40.13;;
47009;SDS011;59230;54.164;-3.124;2023-02-15T07:33:20;88.47;;;46.65;;
47009;SDS011;59230;54.164;-3.124;2023-02-15T07:35:51;90.45;;;45.72;;
47009;SDS011;59230;54.164;-3.124;2023-02-15T07:38:24;95.70;;;45.30;;
47009;SDS011;59230;54.164;-3.124;2023-02-15T07:41:00;87.10;;;39.83;;
47009;SDS011;59230;54.164;-3.124;2023-02-15T07:43:29;79.85;;;41.47;;
47009;SDS011;59230;54.164;-3.124;2023-02-15T07:45:54;89.78;;;42.20;;
47009;SDS011;59230;54.164;-3.124;2023-02-15T07:48:27;94.00;;;46.85;;
47009;SDS011;59230;54.164;-3.124;2023-02-15T07:50:53;79.00;;;39.75;;
47009;SDS011;59230;54.164;-3.124;2023-02-15T07:53:19;94.47;;;41.15;;
47009;SDS011;59230;54.164;-3.124;2023-02-15T07:55:46;89.40;;;40.95;;
47009;SDS011;59230;54.164;-3.124;2023-02-15T07:58:15;85.75;;;39.85;;
47009;SDS011;59230;54.164;-3.124;2023-02-15T08:00:41;80.18;;;40.08;;
47009;SDS011;59230;54.164;-3.124;2023-02-15T08:03:26;82.90;;;41.20;;
47009;SDS011;59230;54.164;-3.124;2023-02-15T08:05:58;87.80;;;41.22;;
47009;SDS011;59230;54.164;-3.124;2023-02-15T08:08:26;93.28;;;42.17;;
47009;SDS011;59230;54.164;-3.124;2023-02-15T08:14:15;85.25;;;42.45;;
47009;SDS011;59230;54.164;-3.124;2023-02-15T08:16:46;88.00;;;43.13;;
47009;SDS011;59230;54.164;-3.124;2023-02-15T08:19:25;89.53;;;43.47;;
47009;SDS011;59230;54.164;-3.124;2023-02-15T08:21:55;103.65;;;44.72;;
47009;SDS011;59230;54.164;-3.124;2023-02-15T08:24:26;91.20;;;44.40;;
47009;SDS011;59230;54.164;-3.124;2023-02-15T08:26:52;90.95;;;44.97;;
47009;SDS011;59230;54.164;-3.124;2023-02-15T08:29:27;95.50;;;47.22;;
47009;SDS011;59230;54.164;-3.124;2023-02-15T08:32:00;95.82;;;47.00;;
47009;SDS011;59230;54.164;-3.124;2023-02-15T08:34:31;92.55;;;45.95;;
47009;SDS011;59230;54.164;-3.124;2023-02-15T08:37:05;95.00;;;47.75;;
47009;SDS011;59230;54.164;-3.124;2023-02-15T08:39:32;86.50;;;44.97;;
47009;SDS011;59230;54.164;-3.124;2023-02-15T08:41:58;92.22;;;47.90;;
47009;SDS011;59230;54.164;-3.124;2023-02-15T08:44:25;77.43;;;42.42;;
47009;SDS011;59230;54.164;-3.124;2023-02-15T08:46:51;94.70;;;46.03;;
47009;SDS011;59230;54.164;-3.124;2023-02-15T08:49:19;83.82;;;46.08;;
47009;SDS011;59230;54.164;-3.124;2023-02-15T08:51:49;95.78;;;45.28;;
47009;SDS011;59230;54.164;-3.124;2023-02-15T08:54:17;91.55;;;47.28;;
47009;SDS011;59230;54.164;-3.124;2023-02-15T08:56:46;102.85;;;49.08;;
47009;SDS011;59230;54.164;-3.124;2023-02-15T08:59:13;93.28;;;48.42;;
47009;SDS011;59230;54.164;-3.124;2023-02-15T09:01:42;92.82;;;49.38;;
47009;SDS011;59230;54.164;-3.124;2023-02-15T09:04:09;104.80;;;49.00;;
47009;SDS011;59230;54.164;-3.124;2023-02-15T09:06:39;101.10;;;48.63;;
47009;SDS011;59230;54.164;-3.124;2023-02-15T09:09:06;89.63;;;47.80;;
47009;SDS011;59230;54.164;-3.124;2023-02-15T09:11:38;102.50;;;50.20;;
47009;SDS011;59230;54.164;-3.124;2023-02-15T09:14:16;106.00;;;47.92;;
47009;SDS011;59230;54.164;-3.124;2023-02-15T09:16:44;88.03;;;47.78;;
47009;SDS011;59230;54.164;-3.124;2023-02-15T09:19:15;90.75;;;47.05;;
47009;SDS011;59230;54.164;-3.124;2023-02-15T09:21:43;98.53;;;47.40;;
47009;SDS011;59230;54.164;-3.124;2023-02-15T09:24:09;91.28;;;47.95;;
47009;SDS011;59230;54.164;-3.124;2023-02-15T09:26:37;96.50;;;48.28;;
47009;SDS011;59230;54.164;-3.124;2023-02-15T09:29:06;89.55;;;48.88;;
47009;SDS011;59230;54.164;-3.124;2023-02-15T09:31:41;94.25;;;48.33;;
47009;SDS011;59230;54.164;-3.124;2023-02-15T09:34:11;97.63;;;46.67;;
47009;SDS011;59230;54.164;-3.124;2023-02-15T09:36:40;92.40;;;45.53;;
47009;SDS011;59230;54.164;-3.124;2023-02-15T09:44:53;97.82;;;49.38;;
47009;SDS011;59230;54.164;-3.124;2023-02-15T09:50:52;90.60;;;47.13;;
47009;SDS011;59230;54.164;-3.124;2023-02-15T09:53:33;82.20;;;46.45;;
47009;SDS011;59230;54.164;-3.124;2023-02-15T09:56:29;94.80;;;46.85;;
47009;SDS011;59230;54.164;-3.124;2023-02-15T10:16:05;101.38;;;50.78;;
47009;SDS011;59230;54.164;-3.124;2023-02-15T10:23:47;94.05;;;48.58;;
47009;SDS011;59230;54.164;-3.124;2023-02-15T10:26:45;110.88;;;51.45;;
47009;SDS011;59230;54.164;-3.124;2023-02-15T10:29:28;103.30;;;50.03;;
47009;SDS011;59230;54.164;-3.124;2023-02-15T10:32:03;115.38;;;54.22;;
47009;SDS011;59230;54.164;-3.124;2023-02-15T10:35:08;108.65;;;51.10;;
47009;SDS011;59230;54.164;-3.124;2023-02-15T10:40:28;99.32;;;50.67;;
47009;SDS011;59230;54.164;-3.124;2023-02-15T10:45:51;111.00;;;52.38;;
47009;SDS011;59230;54.164;-3.124;2023-02-15T10:51:02;123.07;;;51.85;;
47009;SDS011;59230;54.164;-3.124;2023-02-15T11:01:43;146.02;;;58.55;;
47009;SDS011;59230;54.164;-3.124;2023-02-15T11:07:04;150.27;;;58.10;;
47009;SDS011;59230;54.164;-3.124;2023-02-15T11:09:46;186.70;;;62.10;;
47009;SDS011;59230;54.164;-3.124;2023-02-15T11:12:18;166.20;;;61.95;;
47009;SDS011;59230;54.164;-3.124;2023-02-15T11:14:50;201.93;;;66.18;;
47009;SDS011;59230;54.164;-3.124;2023-02-15T11:17:35;185.07;;;62.85;;
47009;SDS011;59230;54.164;-3.124;2023-02-15T11:22:55;215.10;;;67.78;;
47009;SDS011;59230;54.164;-3.124;2023-02-15T11:28:03;231.80;;;73.13;;
47009;SDS011;59230;54.164;-3.124;2023-02-15T11:30:38;287.05;;;83.38;;
47009;SDS011;59230;54.164;-3.124;2023-02-15T11:33:17;318.48;;;86.40;;
47009;SDS011;59230;54.164;-3.124;2023-02-15T11:36:06;250.07;;;78.07;;
47009;SDS011;59230;54.164;-3.124;2023-02-15T11:38:34;262.80;;;78.57;;
47009;SDS011;59230;54.164;-3.124;2023-02-15T11:41:05;245.90;;;76.93;;
47009;SDS011;59230;54.164;-3.124;2023-02-15T11:43:40;252.82;;;76.97;;
47009;SDS011;59230;54.164;-3.124;2023-02-15T11:46:12;199.93;;;69.40;;
47009;SDS011;59230;54.164;-3.124;2023-02-15T11:48:38;264.88;;;77.47;;
47009;SDS011;59230;54.164;-3.124;2023-02-15T11:51:04;382.55;;;86.82;;
47009;SDS011;59230;54.164;-3.124;2023-02-15T11:53:33;280.45;;;78.93;;
47009;SDS011;59230;54.164;-3.124;2023-02-15T11:56:02;232.23;;;71.50;;
47009;SDS011;59230;54.164;-3.124;2023-02-15T11:58:40;171.63;;;63.30;;
47009;SDS011;59230;54.164;-3.124;2023-02-15T12:03:52;206.63;;;63.25;;
47009;SDS011;59230;54.164;-3.124;2023-02-15T12:06:33;546.88;;;160.93;;
47009;SDS011;59230;54.164;-3.124;2023-02-15T12:09:29;240.15;;;64.70;;
47009;SDS011;59230;54.164;-3.124;2023-02-15T12:14:51;456.60;;;169.63;;
47009;SDS011;59230;54.164;-3.124;2023-02-15T12:17:21;811.83;;;341.23;;
47009;SDS011;59230;54.164;-3.124;2023-02-15T12:19:50;424.50;;;109.53;;
47009;SDS011;59230;54.164;-3.124;2023-02-15T12:22:26;396.42;;;112.60;;
47009;SDS011;59230;54.164;-3.124;2023-02-15T12:24:56;369.73;;;98.20;;
47009;SDS011;59230;54.164;-3.124;2023-02-15T12:27:33;317.13;;;66.80;;
47009;SDS011;59230;54.164;-3.124;2023-02-15T12:30:05;151.20;;;33.92;;
47009;SDS011;59230;54.164;-3.124;2023-02-15T12:32:47;732.22;;;177.75;;
47009;SDS011;59230;54.164;-3.124;2023-02-15T12:35:29;210.65;;;49.40;;
47009;SDS011;59230;54.164;-3.124;2023-02-15T12:37:57;150.10;;;29.58;;
47009;SDS011;59230;54.164;-3.124;2023-02-15T12:40:29;34.60;;;5.97;;
47009;SDS011;59230;54.164;-3.124;2023-02-15T12:42:58;109.70;;;20.40;;
47009;SDS011;59230;54.164;-3.124;2023-02-15T12:45:29;117.20;;;25.45;;
47009;SDS011;59230;54.164;-3.124;2023-02-15T12:50:49;473.40;;;115.93;;
47009;SDS011;59230;54.164;-3.124;2023-02-15T12:53:21;438.15;;;110.07;;
47009;SDS011;59230;54.164;-3.124;2023-02-15T12:55:51;190.55;;;41.38;;
47009;SDS011;59230;54.164;-3.124;2023-02-15T13:01:01;44.30;;;7.93;;
47009;SDS011;59230;54.164;-3.124;2023-02-15T13:03:58;141.32;;;51.90;;
47009;SDS011;59230;54.164;-3.124;2023-02-15T13:06:31;148.15;;;55.95;;
47009;SDS011;59230;54.164;-3.124;2023-02-15T13:09:16;63.13;;;27.48;;
47009;SDS011;59230;54.164;-3.124;2023-02-15T13:11:46;64.55;;;24.85;;
47009;SDS011;59230;54.164;-3.124;2023-02-15T13:14:28;265.85;;;107.03;;
47009;SDS011;59230;54.164;-3.124;2023-02-15T13:16:58;76.45;;;33.80;;
47009;SDS011;59230;54.164;-3.124;2023-02-15T13:22:28;68.55;;;23.75;;
47009;SDS011;59230;54.164;-3.124;2023-02-15T13:25:24;16.00;;;2.42;;
47009;SDS011;59230;54.164;-3.124;2023-02-15T13:28:03;15.82;;;2.17;;
47009;SDS011;59230;54.164;-3.124;2023-02-15T13:30:36;12.02;;;1.77;;
47009;SDS011;59230;54.164;-3.124;2023-02-15T13:33:12;17.92;;;2.58;;
47009;SDS011;59230;54.164;-3.124;2023-02-15T13:36:11;14.57;;;1.63;;
47009;SDS011;59230;54.164;-3.124;2023-02-15T13:39:08;9.40;;;1.80;;
47009;SDS011;59230;54.164;-3.124;2023-02-15T13:41:51;14.15;;;1.48;;
47009;SDS011;59230;54.164;-3.124;2023-02-15T13:47:41;8.90;;;1.27;;
47009;SDS011;59230;54.164;-3.124;2023-02-15T13:58:24;9.30;;;2.60;;
47009;SDS011;59230;54.164;-3.124;2023-02-15T14:14:56;10.05;;;1.70;;
47009;SDS011;59230;54.164;-3.124;2023-02-15T14:28:58;12.20;;;2.58;;
47009;SDS011;59230;54.164;-3.124;2023-02-15T14:31:15;10.02;;;2.15;;
47009;SDS011;59230;54.164;-3.124;2023-02-15T14:37:01;13.25;;;1.95;;
47009;SDS011;59230;54.164;-3.124;2023-02-15T14:42:42;14.25;;;2.13;;
47009;SDS011;59230;54.164;-3.124;2023-02-15T14:45:17;11.55;;;2.20;;
47009;SDS011;59230;54.164;-3.124;2023-02-15T14:47:47;16.77;;;2.40;;
47009;SDS011;59230;54.164;-3.124;2023-02-15T14:50:51;15.38;;;2.20;;
47009;SDS011;59230;54.164;-3.124;2023-02-15T15:01:32;12.13;;;2.00;;
47009;SDS011;59230;54.164;-3.124;2023-02-15T15:04:00;10.50;;;2.22;;
47009;SDS011;59230;54.164;-3.124;2023-02-15T15:06:31;11.32;;;2.40;;
47009;SDS011;59230;54.164;-3.124;2023-02-15T15:09:00;10.55;;;2.05;;
47009;SDS011;59230;54.164;-3.124;2023-02-15T15:11:43;12.43;;;2.25;;
47009;SDS011;59230;54.164;-3.124;2023-02-15T15:14:55;17.27;;;2.05;;
47009;SDS011;59230;54.164;-3.124;2023-02-15T15:17:51;9.23;;;1.73;;
47009;SDS011;59230;54.164;-3.124;2023-02-15T15:29:12;20.30;;;2.30;;
47009;SDS011;59230;54.164;-3.124;2023-02-15T15:42:50;9.68;;;1.58;;
47009;SDS011;59230;54.164;-3.124;2023-02-15T15:51:49;12.35;;;2.05;;
47009;SDS011;59230;54.164;-3.124;2023-02-15T15:54:00;13.38;;;1.80;;
47009;SDS011;59230;54.164;-3.124;2023-02-15T15:56:30;10.90;;;1.85;;
47009;SDS011;59230;54.164;-3.124;2023-02-15T15:59:06;15.13;;;1.90;;
47009;SDS011;59230;54.164;-3.124;2023-02-15T16:01:41;12.80;;;2.53;;
47009;SDS011;59230;54.164;-3.124;2023-02-15T16:04:14;11.60;;;1.85;;
47009;SDS011;59230;54.164;-3.124;2023-02-15T16:06:49;14.95;;;2.35;;
47009;SDS011;59230;54.164;-3.124;2023-02-15T16:09:18;15.93;;;1.73;;
47009;SDS011;59230;54.164;-3.124;2023-02-15T16:11:48;13.10;;;2.13;;
47009;SDS011;59230;54.164;-3.124;2023-02-15T16:14:37;23.50;;;3.20;;
47009;SDS011;59230;54.164;-3.124;2023-02-15T16:17:14;16.52;;;2.92;;
47009;SDS011;59230;54.164;-3.124;2023-02-15T16:19:45;15.52;;;2.20;;
47009;SDS011;59230;54.164;-3.124;2023-02-15T16:22:19;15.98;;;2.17;;
47009;SDS011;59230;54.164;-3.124;2023-02-15T16:30:20;17.70;;;2.17;;
47009;SDS011;59230;54.164;-3.124;2023-02-15T16:33:11;14.40;;;1.88;;
47009;SDS011;59230;54.164;-3.124;2023-02-15T16:35:58;19.90;;;2.25;;
47009;SDS011;59230;54.164;-3.124;2023-02-15T16:41:22;14.90;;;2.30;;
47009;SDS011;59230;54.164;-3.124;2023-02-15T16:43:53;15.55;;;1.80;;
47009;SDS011;59230;54.164;-3.124;2023-02-15T16:46:26;15.45;;;1.98;;
47009;SDS011;59230;54.164;-3.124;2023-02-15T16:49:00;15.25;;;1.67;;
47009;SDS011;59230;54.164;-3.124;2023-02-15T16:51:30;17.17;;;1.90;;
47009;SDS011;59230;54.164;-3.124;2023-02-15T16:54:07;13.40;;;2.13;;
47009;SDS011;59230;54.164;-3.124;2023-02-15T16:56:35;10.93;;;1.77;;
47009;SDS011;59230;54.164;-3.124;2023-02-15T16:59:04;16.58;;;2.50;;
47009;SDS011;59230;54.164;-3.124;2023-02-15T17:01:30;23.23;;;2.30;;
47009;SDS011;59230;54.164;-3.124;2023-02-15T17:09:32;16.65;;;2.90;;
47009;SDS011;59230;54.164;-3.124;2023-02-15T17:12:02;21.25;;;2.20;;
47009;SDS011;59230;54.164;-3.124;2023-02-15T17:14:31;23.30;;;2.47;;
47009;SDS011;59230;54.164;-3.124;2023-02-15T17:17:12;13.93;;;2.00;;
47009;SDS011;59230;54.164;-3.124;2023-02-15T17:19:50;18.92;;;2.10;;
47009;SDS011;59230;54.164;-3.124;2023-02-15T17:22:20;18.02;;;2.60;;
47009;SDS011;59230;54.164;-3.124;2023-02-15T17:24:48;14.68;;;3.78;;
47009;SDS011;59230;54.164;-3.124;2023-02-15T17:27:21;25.98;;;5.25;;
47009;SDS011;59230;54.164;-3.124;2023-02-15T17:29:52;21.88;;;5.38;;
47009;SDS011;59230;54.164;-3.124;2023-02-15T17:32:22;20.58;;;5.43;;
47009;SDS011;59230;54.164;-3.124;2023-02-15T17:34:56;28.17;;;5.75;;
47009;SDS011;59230;54.164;-3.124;2023-02-15T17:37:46;22.67;;;5.18;;
47009;SDS011;59230;54.164;-3.124;2023-02-15T17:40:23;17.30;;;3.97;;
47009;SDS011;59230;54.164;-3.124;2023-02-15T17:42:56;20.40;;;4.22;;
47009;SDS011;59230;54.164;-3.124;2023-02-15T17:45:22;22.45;;;4.18;;
47009;SDS011;59230;54.164;-3.124;2023-02-15T17:47:51;27.20;;;3.53;;
47009;SDS011;59230;54.164;-3.124;2023-02-15T17:50:21;24.35;;;7.07;;
47009;SDS011;59230;54.164;-3.124;2023-02-15T17:52:49;26.58;;;6.72;;
47009;SDS011;59230;54.164;-3.124;2023-02-15T17:55:20;25.50;;;4.53;;
47009;SDS011;59230;54.164;-3.124;2023-02-15T17:58:02;18.92;;;4.68;;